Fort Mcpherson Airport
CZFM : now visible

Airfield :











YOU CAN JOIN US ON...

 
LOGIN :

Register | Disclaimer

   EN    FR    IT 

 









Legend :    VFR   Marginal VFR   IFR   Intensive IFR   Very Intensive IFR
Visi :
Ceiling :
>= 8 km
>= 3000ft
5 to 8 km
1000 to 3000 ft
1500m to 5 km
500 to 1000 ft
800 to 1500m
200 to 500 ft
< 800m
< 200 ft
Symbols :   Thunderstorms  Fog  Heavy snow  Heavy precipitations  Wind > 20 kt






- Airport Elevation : 116 ft
- IATA code : ZFM


CZFM - Fort Mcpherson

CURRENT METAR :
  • 121900Z 36012G17KT 35SM OVC200 17/07 A2983 RMK CS8 SLP105 DENSITY ALT 500FT

EXPIRED METARs :
  • 121800Z 35011G17KT 310V010 35SM FEW120 BKN200 16/07 A2983 RMK AS2CS6 SLP105 DENSITY ALT 400FT
  • 121700Z 35009G15KT 35SM FEW030 BKN170 15/07 A2984 RMK CU2AS5 SLP107 DENSITY ALT 300FT

TAF TAF CZFM
Valid from the 12 at 19:00 until the 12 at 23:00 UTC


121838Z 1219/1223 35012G22KT P6SM FEW030 SCT120 BKN200
TEMPO 1219/1223 SCT030 BKN120 OVC200 RMK NXT FCST WILL BE ISSUED AT 131545Z
CZEG FIR / North America



MET'MAP, your aeronautical weather chart ! - Copyright ORBIFLY December 2007 - Disclaimer

ORBIFLY MET'MAP TEAM :

Programming & Development : Alexandra Zaïnal
Concept & original design : Baudouin d'Aumeries
Assistance for programming : Marc-Olivier Méhu
Technical & hardware support : Manuel Goepfert

Contact : metmap@orbifly.com




SOURCES & CREDITS :

   NOAA       Earth
Advisory